Time;durP1;ratioP1;P1;durP2;ratioP2;P2;SDS_P1;SDS_P2;PMS_P1;PMS_P2;Temp;Humidity;BMP_temperature;BMP_pressure;BME280_temperature;BME280_humidity;BME280_pressure;Samples;Min_cycle;Max_cycle;Signal;HPM_P1;HPM_P2
2023/06/23 00:02:37;;;;;;;6.70;6.03;;;;;;;16.17;100.00;101975.75;10251595;29;20452;-70
2023/06/23 00:07:37;;;;;;;10.52;7.45;;;;;;;16.16;100.00;101981.47;10253303;28;20078;-70
2023/06/23 00:12:41;;;;;;;10.38;9.30;;;;;;;16.19;100.00;101972.84;10251552;28;20066;-69
2023/06/23 00:17:46;;;;;;;12.88;10.45;;;;;;;16.13;100.00;101979.13;10251770;28;20038;-69
2023/06/23 00:22:46;;;;;;;15.05;11.85;;;;;;;16.08;100.00;101976.19;10249536;29;20065;-69
2023/06/23 00:27:47;;;;;;;21.23;15.80;;;;;;;16.11;100.00;101975.75;10250382;29;20039;-69
2023/06/23 00:32:47;;;;;;;23.92;17.95;;;;;;;16.14;100.00;101973.44;10234002;29;20560;-70
2023/06/23 00:37:48;;;;;;;27.13;21.67;;;;;;;16.24;100.00;101978.50;10250239;29;20067;-70
2023/06/23 00:42:52;;;;;;;29.23;24.35;;;;;;;16.24;100.00;101968.44;10251943;28;20196;-69
2023/06/23 00:47:52;;;;;;;38.90;24.85;;;;;;;16.29;100.00;101981.47;10250791;29;20530;-70
2023/06/23 00:52:53;;;;;;;42.47;26.25;;;;;;;16.28;100.00;101983.38;10239725;29;20147;-70
2023/06/23 00:57:55;;;;;;;33.70;27.25;;;;;;;16.27;100.00;101983.56;10252064;29;20062;-70
2023/06/23 01:02:59;;;;;;;36.53;26.15;;;;;;;16.28;100.00;101996.19;10250253;29;20051;-69
2023/06/23 01:08:08;;;;;;;42.65;26.67;;;;;;;16.25;100.00;101996.59;10251168;28;20040;-69
2023/06/23 01:13:08;;;;;;;36.08;28.05;;;;;;;16.25;100.00;101997.44;10251163;29;20166;-69
2023/06/23 01:18:18;;;;;;;35.20;26.60;;;;;;;16.23;100.00;102001.44;10251827;29;20038;-69
2023/06/23 01:23:33;;;;;;;39.97;31.33;;;;;;;16.19;100.00;102005.63;10251002;28;20039;-69
2023/06/23 01:28:39;;;;;;;36.10;31.20;;;;;;;16.14;100.00;102019.06;10250581;28;20070;-71
2023/06/23 01:33:43;;;;;;;42.90;33.85;;;;;;;16.08;100.00;102025.34;10257599;29;20097;-70
2023/06/23 01:38:46;;;;;;;43.55;33.72;;;;;;;16.08;100.00;102030.81;10242112;29;20513;-69
2023/06/23 01:43:48;;;;;;;47.58;34.95;;;;;;;16.06;100.00;102033.78;10247619;29;20039;-70
2023/06/23 01:48:49;;;;;;;43.45;35.15;;;;;;;16.07;100.00;102042.81;10245423;29;20082;-69
2023/06/23 01:53:49;;;;;;;47.47;35.95;;;;;;;16.08;100.00;102039.03;10256719;29;20086;-70
2023/06/23 01:58:50;;;;;;;47.53;33.15;;;;;;;16.09;100.00;102043.47;10255574;29;20043;-69
2023/06/23 02:03:50;;;;;;;51.67;31.20;;;;;;;16.07;100.00;102043.66;10255938;29;20028;-69
2023/06/23 02:08:51;;;;;;;38.30;31.73;;;;;;;16.10;100.00;102059.63;10239014;29;20035;-69
2023/06/23 02:13:51;;;;;;;32.40;27.10;;;;;;;16.04;100.00;102064.03;10255851;29;20039;-70
2023/06/23 02:18:54;;;;;;;41.97;32.40;;;;;;;15.98;100.00;102070.31;10238558;29;20113;-69
2023/06/23 02:23:54;;;;;;;38.83;28.98;;;;;;;15.91;100.00;102074.91;10255413;28;20082;-69
2023/06/23 02:28:54;;;;;;;29.58;26.33;;;;;;;15.87;100.00;102091.94;10254508;29;20120;-70
2023/06/23 02:33:55;;;;;;;35.20;26.15;;;;;;;15.80;100.00;102095.47;10252960;29;20467;-69
2023/06/23 02:38:55;;;;;;;33.10;25.63;;;;;;;15.76;100.00;102102.38;10253149;29;20059;-69
2023/06/23 02:43:57;;;;;;;33.67;25.67;;;;;;;15.76;100.00;102093.31;10237120;29;20059;-70
2023/06/23 02:49:04;;;;;;;38.03;24.88;;;;;;;15.75;100.00;102099.84;10253744;29;20051;-69
2023/06/23 02:54:07;;;;;;;31.92;25.95;;;;;;;15.70;100.00;102097.72;10255242;29;20426;-69
2023/06/23 02:59:10;;;;;;;27.98;23.98;;;;;;;15.62;100.00;102088.81;10254183;29;20053;-70
2023/06/23 03:04:11;;;;;;;36.40;25.27;;;;;;;15.58;100.00;102094.69;10223071;29;20032;-69
2023/06/23 03:09:12;;;;;;;29.58;24.45;;;;;;;15.57;100.00;102092.16;10255133;29;20027;-70
2023/06/23 03:14:12;;;;;;;29.27;25.45;;;;;;;15.58;100.00;102104.78;10256599;28;20062;-69
2023/06/23 03:19:22;;;;;;;30.30;24.90;;;;;;;15.57;100.00;102105.78;10255670;29;20047;-72
2023/06/23 03:24:22;;;;;;;37.78;25.10;;;;;;;15.56;100.00;102107.69;10253187;29;20035;-69
2023/06/23 03:29:22;;;;;;;49.33;25.60;;;;;;;15.56;100.00;102115.88;10251694;29;20375;-70
2023/06/23 03:34:23;;;;;;;35.65;24.15;;;;;;;15.59;100.00;102118.22;10236995;29;20059;-69
2023/06/23 03:39:24;;;;;;;33.67;24.52;;;;;;;15.55;100.00;102125.13;10236446;29;20050;-69
2023/06/23 03:44:33;;;;;;;35.40;24.17;;;;;;;15.58;100.00;102132.91;10250777;29;20038;-69
2023/06/23 03:49:37;;;;;;;33.00;23.05;;;;;;;15.63;100.00;102137.75;10251917;28;20073;-69
2023/06/23 03:54:38;;;;;;;32.67;24.65;;;;;;;15.68;100.00;102161.78;10234137;29;20027;-69
2023/06/23 03:59:39;;;;;;;41.03;23.88;;;;;;;15.89;100.00;102171.75;10233935;29;20031;-69
2023/06/23 04:04:39;;;;;;;34.10;27.58;;;;;;;16.24;100.00;102175.28;10251630;29;20039;-69
2023/06/23 04:09:41;;;;;;;46.33;29.10;;;;;;;16.50;100.00;102180.03;10251538;29;20114;-69
2023/06/23 04:14:42;;;;;;;36.53;27.65;;;;;;;16.66;100.00;102178.81;10234265;29;20046;-69
2023/06/23 04:19:42;;;;;;;45.17;30.67;;;;;;;16.82;100.00;102183.09;10269627;28;20046;-69
2023/06/23 04:24:43;;;;;;;40.42;29.88;;;;;;;16.98;100.00;102177.22;10218570;29;20047;-69
2023/06/23 04:29:44;;;;;;;35.50;27.85;;;;;;;17.16;100.00;102193.00;10233679;29;20075;-69
2023/06/23 04:34:45;;;;;;;32.15;27.42;;;;;;;17.26;100.00;102185.25;10232818;29;20055;-69
2023/06/23 04:39:48;;;;;;;31.67;26.77;;;;;;;17.26;100.00;102181.63;10249164;29;20046;-69
2023/06/23 04:44:51;;;;;;;35.47;28.67;;;;;;;17.66;100.00;102187.94;10217843;29;20093;-70
2023/06/23 04:49:56;;;;;;;37.40;29.13;;;;;;;17.75;100.00;102178.44;10250530;28;20391;-69
2023/06/23 04:54:58;;;;;;;34.72;25.73;;;;;;;17.88;100.00;102180.34;10233481;29;20062;-69
2023/06/23 05:00:01;;;;;;;36.97;26.50;;;;;;;18.53;100.00;102181.09;10249658;29;20046;-69
2023/06/23 05:05:01;;;;;;;34.63;22.85;;;;;;;18.96;100.00;102198.84;10222000;28;20039;-70
2023/06/23 05:10:01;;;;;;;33.08;23.50;;;;;;;19.80;100.00;102204.91;10256525;29;20101;-70
2023/06/23 05:15:02;;;;;;;21.90;19.25;;;;;;;19.79;100.00;102200.50;10256009;29;20046;-70
2023/06/23 05:20:03;;;;;;;23.25;18.35;;;;;;;19.62;100.00;102206.53;10241144;29;20094;-70
2023/06/23 05:25:05;;;;;;;32.97;17.77;;;;;;;19.68;100.00;102205.63;10240119;29;20047;-69
2023/06/23 05:30:06;;;;;;;18.50;14.90;;;;;;;20.31;100.00;102217.44;10255932;29;20083;-69
2023/06/23 05:35:06;;;;;;;19.13;14.18;;;;;;;20.83;100.00;102218.66;10254944;29;20126;-70
2023/06/23 05:40:08;;;;;;;19.60;12.48;;;;;;;20.82;100.00;102222.50;10239864;29;20058;-70
2023/06/23 05:45:10;;;;;;;17.25;12.95;;;;;;;21.40;100.00;102226.50;10224078;29;20487;-70
2023/06/23 05:50:21;;;;;;;11.55;9.05;;;;;;;21.85;100.00;102225.91;10239385;29;20037;-70
2023/06/23 05:55:22;;;;;;;9.80;8.18;;;;;;;22.44;100.00;102242.41;10239517;29;20039;-69
2023/06/23 06:00:22;;;;;;;8.43;7.63;;;;;;;22.71;100.00;102239.91;10254604;29;20059;-70
2023/06/23 06:05:23;;;;;;;7.93;6.72;;;;;;;22.81;100.00;102239.25;10255317;29;20043;-70
2023/06/23 06:10:24;;;;;;;7.32;6.60;;;;;;;23.17;100.00;102244.41;10223373;29;20479;-70
2023/06/23 06:15:24;;;;;;;7.65;7.05;;;;;;;23.53;100.00;102256.06;10238598;28;20102;-69
2023/06/23 06:20:24;;;;;;;7.05;6.38;;;;;;;24.16;100.00;102256.75;10255919;29;20040;-70
2023/06/23 06:25:25;;;;;;;6.53;5.85;;;;;;;24.38;100.00;102251.25;10254879;29;20098;-70
2023/06/23 06:30:26;;;;;;;7.03;6.13;;;;;;;24.79;100.00;102252.59;10239026;29;20134;-69
2023/06/23 06:35:26;;;;;;;11.98;5.05;;;;;;;25.19;100.00;102254.13;10253723;29;20051;-69
2023/06/23 06:40:26;;;;;;;13.50;5.68;;;;;;;25.20;100.00;102266.03;10254230;29;20039;-69
2023/06/23 06:45:27;;;;;;;14.32;5.22;;;;;;;25.77;100.00;102262.63;10254046;29;20035;-70
2023/06/23 06:50:27;;;;;;;5.55;5.05;;;;;;;26.33;100.00;102287.16;10237866;29;20439;-70
2023/06/23 06:55:28;;;;;;;4.07;3.72;;;;;;;26.74;100.00;102279.00;10252495;29;20082;-70
2023/06/23 07:00:30;;;;;;;9.68;5.28;;;;;;;27.08;100.00;102291.31;10252527;29;20515;-70
2023/06/23 07:05:30;;;;;;;5.90;5.35;;;;;;;27.47;100.00;102288.06;10237707;29;20039;-70
2023/06/23 07:10:31;;;;;;;5.07;4.35;;;;;;;28.03;100.00;102295.56;10236439;29;20431;-70
2023/06/23 07:15:31;;;;;;;4.93;4.53;;;;;;;28.26;100.00;102305.22;10252126;29;20062;-70
2023/06/23 07:20:32;;;;;;;8.38;4.55;;;;;;;28.76;100.00;102320.13;10250866;29;20134;-70
2023/06/23 07:25:32;;;;;;;4.07;3.65;;;;;;;29.05;100.00;102313.88;10252624;28;20046;-70
2023/06/23 07:30:33;;;;;;;4.25;3.95;;;;;;;29.36;100.00;102317.28;10236694;29;20038;-70
2023/06/23 07:35:33;;;;;;;5.53;4.35;;;;;;;29.39;100.00;102309.16;10252006;29;20106;-69
2023/06/23 07:40:33;;;;;;;6.43;4.72;;;;;;;29.59;100.00;102319.31;10252483;29;20039;-70
2023/06/23 07:45:34;;;;;;;4.70;4.20;;;;;;;29.81;100.00;102316.09;10252728;29;20042;-70
2023/06/23 07:50:34;;;;;;;4.55;4.30;;;;;;;29.92;100.00;102321.56;10267234;28;20069;-69
2023/06/23 07:55:35;;;;;;;6.05;4.50;;;;;;;30.06;100.00;102320.59;10252161;29;20039;-70
2023/06/23 08:00:35;;;;;;;7.88;6.90;;;;;;;29.54;100.00;102327.72;10250507;29;20414;-68
2023/06/23 08:05:37;;;;;;;5.88;5.40;;;;;;;29.84;100.00;102339.81;10164334;28;20052;-70
2023/06/23 08:10:38;;;;;;;6.07;5.40;;;;;;;29.84;96.50;102334.22;10210060;29;20067;-68
2023/06/23 08:15:40;;;;;;;5.93;5.43;;;;;;;29.82;95.89;102351.25;10212177;29;20402;-69
2023/06/23 08:20:40;;;;;;;8.45;4.95;;;;;;;30.05;92.92;102351.59;10211081;29;20083;-69
2023/06/23 08:25:41;;;;;;;4.65;4.35;;;;;;;30.00;88.15;102348.88;10194230;29;20039;-69
2023/06/23 08:30:41;;;;;;;9.98;4.50;;;;;;;29.99;83.06;102347.19;10194171;29;20076;-69
2023/06/23 08:35:42;;;;;;;4.28;3.78;;;;;;;30.28;85.10;102342.47;10210474;29;20132;-72
2023/06/23 08:40:42;;;;;;;4.65;4.35;;;;;;;30.33;80.22;102347.97;10210313;29;20032;-69
2023/06/23 08:45:44;;;;;;;4.95;4.55;;;;;;;30.53;77.72;102346.06;10210866;29;20039;-68
2023/06/23 08:50:44;;;;;;;4.57;4.18;;;;;;;30.58;75.13;102340.44;10209916;29;20031;-67
2023/06/23 08:55:45;;;;;;;5.22;4.70;;;;;;;30.91;74.72;102346.19;10209830;29;20043;-70
2023/06/23 09:00:46;;;;;;;4.80;4.40;;;;;;;31.06;77.26;102351.56;10195043;29;20099;-73
2023/06/23 09:05:46;;;;;;;5.38;4.05;;;;;;;31.59;72.70;102356.09;10196115;29;20122;-73
2023/06/23 09:10:47;;;;;;;4.00;3.72;;;;;;;31.62;70.25;102363.88;10212313;29;20064;-71
2023/06/23 09:15:48;;;;;;;7.95;3.58;;;;;;;31.64;66.82;102359.66;10211050;29;20028;-69
2023/06/23 09:20:49;;;;;;;5.15;4.65;;;;;;;31.72;64.72;102361.78;10210061;29;20036;-71
2023/06/23 09:25:51;;;;;;;3.60;3.30;;;;;;;31.78;65.04;102365.31;10225695;29;20071;-68
2023/06/23 09:30:55;;;;;;;3.58;3.38;;;;;;;32.13;62.46;102366.69;10210048;29;20040;-67
2023/06/23 09:35:56;;;;;;;3.67;2.83;;;;;;;32.60;61.57;102378.69;10193561;29;20139;-67
2023/06/23 09:41:16;;;;;;;3.97;3.58;;;;;;;32.84;58.63;102366.41;10191990;29;20127;-68
2023/06/23 09:46:17;;;;;;;7.95;4.28;;;;;;;32.69;56.28;102372.34;10193372;29;20031;-68
2023/06/23 09:51:20;;;;;;;4.55;4.15;;;;;;;32.63;54.63;102375.25;10209743;29;20034;-67
2023/06/23 09:56:21;;;;;;;5.35;3.25;;;;;;;32.86;55.74;102369.72;10215727;29;20078;-66
2023/06/23 10:01:22;;;;;;;4.15;3.75;;;;;;;32.77;52.98;102357.56;10215111;29;20043;-68
2023/06/23 10:06:34;;;;;;;10.10;3.60;;;;;;;32.83;51.27;102361.94;10216709;29;20040;-68
2023/06/23 10:11:36;;;;;;;4.28;3.85;;;;;;;32.41;49.79;102361.91;10214869;29;20035;-66
2023/06/23 10:16:43;;;;;;;4.22;3.88;;;;;;;32.92;52.92;102376.06;10213918;29;20132;-73
2023/06/23 10:21:44;;;;;;;4.00;3.55;;;;;;;32.76;49.73;102372.75;10199632;29;20035;-70
2023/06/23 10:26:45;;;;;;;4.65;3.60;;;;;;;33.17;49.79;102363.47;10197913;29;20118;-66
2023/06/23 10:31:46;;;;;;;4.93;3.47;;;;;;;33.53;48.99;102372.72;10213255;29;20063;-68
2023/06/23 10:36:48;;;;;;;10.57;4.00;;;;;;;33.64;47.38;102369.66;10183843;29;20099;-68
2023/06/23 10:41:51;;;;;;;5.45;3.67;;;;;;;33.85;48.31;102387.66;10213805;29;20043;-68
2023/06/23 10:46:51;;;;;;;4.63;4.22;;;;;;;34.09;47.65;102387.34;10167529;28;20137;-70
2023/06/23 10:51:52;;;;;;;2.72;2.50;;;;;;;34.23;45.40;102379.63;10253676;29;20419;-70
2023/06/23 10:56:53;;;;;;;3.30;3.08;;;;;;;34.05;44.03;102388.28;10253050;29;20084;-69
2023/06/23 11:01:59;;;;;;;3.05;2.85;;;;;;;34.29;42.83;102383.13;10253751;28;20094;-68
2023/06/23 11:07:07;;;;;;;3.35;2.67;;;;;;;34.20;44.00;102373.81;10252632;29;20035;-69
2023/06/23 11:12:36;;;;;;;3.08;2.88;;;;;;;34.68;45.48;102375.88;10236794;29;20023;-69
2023/06/23 11:17:41;;;;;;;2.88;2.55;;;;;;;34.73;43.34;102378.53;10253249;28;20038;-68
2023/06/23 11:22:58;;;;;;;3.08;2.80;;;;;;;34.55;41.38;102386.09;10251346;29;20442;-68
2023/06/23 11:28:28;;;;;;;2.25;1.95;;;;;;;34.24;41.88;102374.88;10254441;28;20039;-70
2023/06/23 11:33:32;;;;;;;2.58;2.17;;;;;;;34.22;40.86;102380.78;10252892;28;20051;-68
2023/06/23 11:38:33;;;;;;;2.03;1.88;;;;;;;34.10;41.78;102389.00;10253570;28;20055;-69
2023/06/23 11:43:34;;;;;;;2.90;2.63;;;;;;;34.26;41.57;102378.16;10251789;28;20031;-69
2023/06/23 11:48:39;;;;;;;3.72;2.80;;;;;;;33.88;39.80;102391.81;10237287;29;20043;-67
2023/06/23 11:53:42;;;;;;;2.83;2.53;;;;;;;33.99;40.50;102391.22;10252904;28;20046;-67
2023/06/23 11:58:50;;;;;;;2.30;2.10;;;;;;;34.00;38.60;102389.25;10252180;28;20031;-69
2023/06/23 12:03:52;;;;;;;2.50;2.40;;;;;;;34.06;40.03;102399.22;10235301;29;20123;-69
2023/06/23 12:08:54;;;;;;;2.47;2.30;;;;;;;34.14;40.13;102400.41;10251229;28;20046;-69
2023/06/23 12:13:54;;;;;;;1.92;1.73;;;;;;;34.18;37.76;102396.66;10249258;28;20031;-68
2023/06/23 12:18:55;;;;;;;2.55;2.42;;;;;;;34.23;37.80;102396.50;10233909;29;20039;-69
2023/06/23 12:23:56;;;;;;;2.15;1.95;;;;;;;34.36;39.38;102391.94;10233932;29;20031;-69
2023/06/23 12:29:09;;;;;;;2.92;2.70;;;;;;;34.05;37.86;102405.16;10185329;28;20134;-68
2023/06/23 12:34:13;;;;;;;2.17;2.08;;;;;;;34.05;37.94;102389.16;10249657;29;20356;-67
2023/06/23 12:39:15;;;;;;;2.08;1.98;;;;;;;34.09;38.36;102389.34;10251094;28;20055;-67
2023/06/23 12:44:15;;;;;;;2.17;2.03;;;;;;;34.20;37.53;102387.88;10234590;29;20031;-70
2023/06/23 12:49:16;;;;;;;4.03;2.45;;;;;;;33.83;37.09;102389.16;10248987;29;20538;-66
2023/06/23 12:54:17;;;;;;;2.67;2.47;;;;;;;33.25;36.88;102388.81;10251142;29;20031;-66
2023/06/23 12:59:18;;;;;;;3.08;2.50;;;;;;;33.14;38.52;102378.13;10249563;29;20048;-67
2023/06/23 13:04:19;;;;;;;2.45;2.25;;;;;;;32.91;39.34;102380.84;10250791;29;20167;-67
2023/06/23 13:09:19;;;;;;;2.85;2.65;;;;;;;32.36;38.72;102381.66;10250895;28;20179;-67
2023/06/23 13:14:19;;;;;;;3.92;2.72;;;;;;;31.98;39.72;102380.97;10249829;29;20058;-67
2023/06/23 13:19:20;;;;;;;3.13;2.83;;;;;;;31.84;40.27;102372.47;10250557;28;20471;-68
2023/06/23 13:24:20;;;;;;;3.53;2.92;;;;;;;31.95;40.74;102390.00;10250665;28;20058;-69
2023/06/23 13:29:21;;;;;;;2.95;2.60;;;;;;;31.77;40.03;102376.81;10257118;28;20051;-70
2023/06/23 13:34:21;;;;;;;4.22;3.28;;;;;;;31.57;40.03;102378.00;10224262;29;20175;-69
2023/06/23 13:39:22;;;;;;;2.60;2.40;;;;;;;31.36;41.47;102377.47;10257153;29;20364;-71
2023/06/23 13:44:22;;;;;;;3.30;2.83;;;;;;;31.28;41.83;102379.78;10239727;29;20046;-69
2023/06/23 13:49:22;;;;;;;2.58;2.38;;;;;;;31.31;41.77;102366.34;10257011;29;20039;-69
2023/06/23 13:54:23;;;;;;;3.05;2.67;;;;;;;31.72;41.63;102383.34;10255139;29;20062;-69
2023/06/23 13:59:23;;;;;;;2.55;2.28;;;;;;;31.74;40.05;102387.50;10256093;28;20058;-68
2023/06/23 14:04:24;;;;;;;3.35;2.67;;;;;;;31.20;41.41;102376.81;10254895;29;20434;-69
2023/06/23 14:09:24;;;;;;;3.28;2.80;;;;;;;31.08;41.20;102385.69;10256753;28;20063;-68
2023/06/23 14:14:25;;;;;;;2.63;2.42;;;;;;;31.09;40.66;102392.13;10271406;28;20082;-69
2023/06/23 14:19:25;;;;;;;2.83;2.63;;;;;;;31.18;41.88;102385.53;10255618;29;20043;-69
2023/06/23 14:24:26;;;;;;;2.78;2.58;;;;;;;31.25;41.33;102386.00;10256305;28;20059;-69
2023/06/23 14:29:26;;;;;;;4.10;2.35;;;;;;;31.00;40.91;102389.16;10254203;29;20114;-70
2023/06/23 14:34:27;;;;;;;8.50;2.55;;;;;;;30.88;41.05;102386.78;10254221;28;20122;-71
2023/06/23 14:39:27;;;;;;;2.80;2.60;;;;;;;30.50;41.07;102391.41;10254870;28;20091;-69
2023/06/23 14:44:30;;;;;;;2.08;1.65;;;;;;;30.58;41.43;102388.78;10255374;29;20047;-69
2023/06/23 14:49:31;;;;;;;3.72;2.28;;;;;;;30.68;41.22;102393.44;10200260;28;20146;-69
2023/06/23 14:54:31;;;;;;;2.03;1.92;;;;;;;30.03;41.63;102409.75;10268651;28;20046;-70
2023/06/23 14:59:31;;;;;;;4.38;2.90;;;;;;;30.09;42.85;102398.22;10236494;29;20538;-69
2023/06/23 15:04:32;;;;;;;8.63;2.47;;;;;;;29.86;42.02;102394.22;10253148;29;20099;-69
2023/06/23 15:09:32;;;;;;;1.93;1.83;;;;;;;29.75;41.96;102392.66;10236116;29;20039;-69
2023/06/23 15:14:33;;;;;;;2.10;2.00;;;;;;;29.52;42.08;102396.16;10254168;28;20293;-69
2023/06/23 15:19:33;;;;;;;2.05;1.88;;;;;;;29.46;43.01;102386.97;10254035;28;20049;-69
2023/06/23 15:24:35;;;;;;;3.63;2.38;;;;;;;29.42;43.77;102389.50;10252866;29;20043;-70
2023/06/23 15:29:35;;;;;;;2.33;2.13;;;;;;;29.42;42.62;102389.50;10220207;29;20034;-69
2023/06/23 15:34:36;;;;;;;2.03;1.92;;;;;;;29.08;43.58;102394.19;10252070;28;20373;-69
2023/06/23 15:39:40;;;;;;;4.22;3.15;;;;;;;28.93;43.38;102386.69;10235831;29;20122;-69
2023/06/23 15:44:40;;;;;;;12.98;2.83;;;;;;;28.88;43.86;102395.91;10250792;29;20031;-69
2023/06/23 15:49:41;;;;;;;11.80;2.92;;;;;;;28.91;43.58;102395.34;10249765;28;20035;-69
2023/06/23 15:54:41;;;;;;;1.85;1.77;;;;;;;28.86;43.19;102391.72;10250195;29;20086;-70
2023/06/23 15:59:43;;;;;;;3.00;2.70;;;;;;;28.65;43.86;102391.78;10251761;29;20131;-69
2023/06/23 16:04:43;;;;;;;3.60;2.63;;;;;;;28.18;44.09;102392.19;10218029;29;20106;-69
2023/06/23 16:09:44;;;;;;;2.40;2.13;;;;;;;27.93;44.38;102379.94;10248738;29;20075;-69
2023/06/23 16:14:44;;;;;;;4.47;2.33;;;;;;;28.07;44.51;102371.00;10250384;28;20035;-69
2023/06/23 16:19:44;;;;;;;3.65;2.42;;;;;;;28.03;44.31;102374.34;10233525;29;20481;-69
2023/06/23 16:24:45;;;;;;;3.17;2.58;;;;;;;27.80;43.99;102375.75;10249238;29;20051;-69
2023/06/23 16:29:45;;;;;;;3.05;2.78;;;;;;;27.15;44.37;102374.50;10250599;29;20085;-69
2023/06/23 16:34:46;;;;;;;2.25;2.15;;;;;;;26.74;44.66;102376.25;10250306;29;20086;-68
2023/06/23 16:39:46;;;;;;;2.40;2.20;;;;;;;26.33;44.65;102376.88;10232991;29;20039;-69
2023/06/23 16:44:47;;;;;;;1.90;1.80;;;;;;;25.98;45.16;102377.44;10250149;28;20031;-69
2023/06/23 16:49:47;;;;;;;2.25;2.13;;;;;;;25.86;45.08;102374.00;10249724;29;20119;-69
2023/06/23 16:54:48;;;;;;;3.22;2.45;;;;;;;25.71;45.17;102364.41;10251848;28;20117;-69
2023/06/23 16:59:48;;;;;;;4.72;2.28;;;;;;;25.53;45.21;102359.28;10219920;28;20454;-69
2023/06/23 17:04:49;;;;;;;3.70;2.70;;;;;;;25.40;45.55;102379.09;10256808;29;20422;-69
2023/06/23 17:09:49;;;;;;;4.00;3.35;;;;;;;25.43;45.57;102375.78;10256438;29;20179;-69
2023/06/23 17:14:50;;;;;;;4.85;2.90;;;;;;;25.41;45.41;102375.22;10258412;29;20042;-69
2023/06/23 17:19:51;;;;;;;5.72;2.55;;;;;;;25.31;45.28;102372.34;10257295;29;20171;-69
2023/06/23 17:24:51;;;;;;;2.33;2.08;;;;;;;25.24;45.01;102362.31;10258553;28;20368;-69
2023/06/23 17:29:53;;;;;;;2.28;1.95;;;;;;;25.20;45.09;102354.75;10256248;29;20039;-69
2023/06/23 17:34:54;;;;;;;2.38;2.17;;;;;;;24.96;45.38;102349.47;10271575;28;20079;-69
2023/06/23 17:39:55;;;;;;;3.45;3.15;;;;;;;24.84;45.32;102351.53;10256383;29;20075;-69
2023/06/23 17:44:55;;;;;;;3.20;3.00;;;;;;;24.68;45.58;102344.13;10258185;29;20074;-69
2023/06/23 17:49:56;;;;;;;3.80;3.00;;;;;;;24.45;45.68;102342.47;10258906;28;20028;-69
2023/06/23 17:54:56;;;;;;;2.80;2.60;;;;;;;24.40;45.90;102353.41;10257506;29;20481;-69
2023/06/23 17:59:56;;;;;;;3.13;2.92;;;;;;;24.35;45.95;102349.50;10256958;29;20035;-69
2023/06/23 18:04:57;;;;;;;6.13;2.53;;;;;;;24.32;45.89;102343.63;10256812;29;20130;-69
2023/06/23 18:09:57;;;;;;;3.25;2.95;;;;;;;24.37;46.07;102355.59;10255896;28;20362;-69
2023/06/23 18:14:58;;;;;;;9.07;2.63;;;;;;;24.35;46.03;102346.72;10254447;29;20106;-69
2023/06/23 18:19:58;;;;;;;3.42;2.10;;;;;;;24.36;46.41;102348.38;10256763;28;20170;-69
2023/06/23 18:24:58;;;;;;;3.72;3.35;;;;;;;24.20;47.48;102348.44;10254443;29;20123;-69
2023/06/23 18:29:59;;;;;;;1.80;1.70;;;;;;;24.26;47.25;102337.19;10253362;29;20497;-69
2023/06/23 18:34:59;;;;;;;2.20;2.10;;;;;;;24.24;47.46;102336.56;10253823;29;20187;-69
2023/06/23 18:40:00;;;;;;;3.28;2.35;;;;;;;24.36;46.88;102342.84;10254415;29;20035;-68
2023/06/23 18:45:00;;;;;;;25.45;3.42;;;;;;;24.45;46.67;102353.53;10255346;28;20402;-70
2023/06/23 18:50:01;;;;;;;5.95;2.53;;;;;;;24.45;46.57;102353.53;10254680;28;20038;-69
2023/06/23 18:55:02;;;;;;;5.35;2.10;;;;;;;24.36;46.62;102351.16;10238416;29;20072;-69
2023/06/23 19:00:05;;;;;;;5.40;2.47;;;;;;;24.30;46.72;102349.41;10254246;28;20339;-71
2023/06/23 19:05:05;;;;;;;2.42;2.22;;;;;;;24.25;46.79;102359.56;10253943;29;20038;-71
2023/06/23 19:10:06;;;;;;;3.13;2.10;;;;;;;24.13;46.79;102352.22;10254565;29;20412;-70
2023/06/23 19:15:07;;;;;;;3.13;2.55;;;;;;;24.06;46.96;102351.56;10254826;28;20039;-69
2023/06/23 19:20:09;;;;;;;1.95;1.85;;;;;;;23.92;47.18;102352.97;10255527;28;20508;-70
2023/06/23 19:25:10;;;;;;;2.22;2.13;;;;;;;23.70;47.37;102361.16;10254733;28;20064;-70
2023/06/23 19:30:11;;;;;;;3.83;2.38;;;;;;;23.47;47.88;102356.59;10253930;28;20150;-70
2023/06/23 19:35:11;;;;;;;2.35;2.20;;;;;;;23.25;48.09;102361.16;10252599;28;20062;-70
2023/06/23 19:40:11;;;;;;;6.28;3.97;;;;;;;23.11;48.38;102360.63;10251654;29;20166;-70
2023/06/23 19:45:12;;;;;;;6.38;2.08;;;;;;;22.97;48.38;102363.69;10250975;29;20508;-70
2023/06/23 19:50:12;;;;;;;3.20;3.00;;;;;;;22.78;48.73;102370.41;10253956;29;20142;-70
2023/06/23 19:55:13;;;;;;;3.20;2.90;;;;;;;22.62;48.77;102371.16;10252314;28;20420;-69
2023/06/23 20:00:14;;;;;;;2.60;2.40;;;;;;;22.47;49.14;102371.66;10252005;28;20035;-69
2023/06/23 20:05:14;;;;;;;3.50;3.17;;;;;;;22.34;49.29;102378.28;10250913;29;20106;-69
2023/06/23 20:10:15;;;;;;;3.50;3.20;;;;;;;22.20;49.91;102371.31;10250903;29;20117;-69
2023/06/23 20:15:15;;;;;;;3.85;3.30;;;;;;;22.17;50.30;102382.81;10251630;29;20498;-69
2023/06/23 20:20:15;;;;;;;5.93;2.70;;;;;;;22.14;52.50;102391.53;10251435;28;20034;-70
2023/06/23 20:25:16;;;;;;;3.78;2.75;;;;;;;22.09;51.99;102396.94;10250630;29;20441;-69
2023/06/23 20:30:16;;;;;;;3.05;2.85;;;;;;;22.02;51.71;102395.16;10234951;29;20130;-70
2023/06/23 20:35:17;;;;;;;2.95;2.67;;;;;;;21.90;52.51;102399.78;10250815;29;20094;-70
2023/06/23 20:40:18;;;;;;;2.97;2.78;;;;;;;21.81;53.65;102402.03;10251580;28;20040;-70
2023/06/23 20:45:21;;;;;;;3.30;2.97;;;;;;;21.69;53.66;102392.91;10250712;28;20046;-70
2023/06/23 20:50:21;;;;;;;2.58;2.38;;;;;;;21.55;53.11;102392.28;10249555;29;20051;-70
2023/06/23 20:55:22;;;;;;;10.35;4.20;;;;;;;21.44;53.69;102406.88;10232541;29;20074;-69
2023/06/23 21:00:22;;;;;;;7.53;3.30;;;;;;;21.38;53.84;102398.66;10249785;29;20141;-69
2023/06/23 21:05:23;;;;;;;5.22;3.08;;;;;;;21.29;53.69;102395.38;10249749;29;20039;-69
2023/06/23 21:10:23;;;;;;;5.35;3.22;;;;;;;21.22;54.39;102391.84;10250575;29;20360;-70
2023/06/23 21:15:26;;;;;;;5.22;3.83;;;;;;;21.11;54.87;102396.25;10251581;28;20043;-70
2023/06/23 21:20:27;;;;;;;4.30;3.22;;;;;;;21.03;55.04;102396.56;10249104;29;20142;-70
2023/06/23 21:25:27;;;;;;;4.97;3.80;;;;;;;20.87;55.36;102400.78;10250572;28;20082;-70
2023/06/23 21:30:28;;;;;;;5.35;3.08;;;;;;;20.72;56.14;102395.66;10232373;29;20047;-69
2023/06/23 21:35:28;;;;;;;5.80;3.13;;;;;;;20.51;57.49;102399.69;10250190;29;20420;-69
2023/06/23 21:40:29;;;;;;;5.63;2.65;;;;;;;20.33;56.58;102392.22;10248947;29;20031;-69
2023/06/23 21:45:29;;;;;;;3.28;2.97;;;;;;;20.21;57.26;102389.38;10249271;28;20399;-69
2023/06/23 21:50:30;;;;;;;3.08;2.88;;;;;;;20.15;57.05;102397.69;10257023;29;20094;-69
2023/06/23 21:55:31;;;;;;;3.38;3.03;;;;;;;19.98;58.03;102387.25;10259586;29;20391;-69
2023/06/23 22:00:31;;;;;;;3.88;2.67;;;;;;;19.91;57.43;102391.97;10256865;28;20031;-68
2023/06/23 22:05:31;;;;;;;3.97;3.17;;;;;;;19.81;57.30;102391.59;10255107;29;20494;-68
2023/06/23 22:10:32;;;;;;;3.67;2.47;;;;;;;19.74;56.90;102393.56;10257294;28;20039;-68
2023/06/23 22:15:32;;;;;;;4.50;2.63;;;;;;;19.63;56.29;102389.59;10254542;29;20479;-68
2023/06/23 22:20:33;;;;;;;2.97;2.72;;;;;;;19.55;56.40;102395.34;10238844;29;20039;-68
2023/06/23 22:25:33;;;;;;;4.00;2.08;;;;;;;19.45;56.88;102408.72;10256644;28;20043;-68
2023/06/23 22:30:34;;;;;;;4.25;2.30;;;;;;;19.34;57.25;102401.19;10255198;29;20193;-68
2023/06/23 22:35:34;;;;;;;3.60;3.30;;;;;;;19.26;57.68;102389.38;10257743;28;20125;-68
2023/06/23 22:40:35;;;;;;;6.60;3.10;;;;;;;19.16;58.84;102389.00;10255998;29;20478;-68
2023/06/23 22:45:35;;;;;;;2.65;2.45;;;;;;;19.13;58.20;102394.94;10256930;28;20071;-68
2023/06/23 22:50:35;;;;;;;2.05;1.95;;;;;;;19.03;58.70;102383.56;10240581;29;20057;-68